sensor_id;sensor_type;location;lat;lon;timestamp;P1;durP1;ratioP1;P2;durP2;ratioP2
73266;SDS011;61495;53.400;7.608;2022-07-04T00:00:06;5.38;;;1.42;;
73266;SDS011;61495;53.400;7.608;2022-07-04T00:02:33;5.00;;;1.83;;
73266;SDS011;61495;53.400;7.608;2022-07-04T00:04:58;4.45;;;1.40;;
73266;SDS011;61495;53.400;7.608;2022-07-04T00:07:24;3.80;;;1.50;;
73266;SDS011;61495;53.400;7.608;2022-07-04T00:09:49;3.47;;;1.50;;
73266;SDS011;61495;53.400;7.608;2022-07-04T00:12:14;3.17;;;1.35;;
73266;SDS011;61495;53.400;7.608;2022-07-04T00:14:40;4.85;;;1.50;;
73266;SDS011;61495;53.400;7.608;2022-07-04T00:17:05;5.53;;;1.85;;
73266;SDS011;61495;53.400;7.608;2022-07-04T00:19:31;3.53;;;1.50;;
73266;SDS011;61495;53.400;7.608;2022-07-04T00:21:57;4.35;;;1.63;;
73266;SDS011;61495;53.400;7.608;2022-07-04T00:24:22;2.97;;;1.40;;
73266;SDS011;61495;53.400;7.608;2022-07-04T00:26:47;5.82;;;1.77;;
73266;SDS011;61495;53.400;7.608;2022-07-04T00:29:13;5.38;;;1.75;;
73266;SDS011;61495;53.400;7.608;2022-07-04T00:31:39;4.18;;;1.63;;
73266;SDS011;61495;53.400;7.608;2022-07-04T00:34:05;4.88;;;1.70;;
73266;SDS011;61495;53.400;7.608;2022-07-04T00:36:31;5.32;;;1.77;;
73266;SDS011;61495;53.400;7.608;2022-07-04T00:38:56;4.75;;;1.55;;
73266;SDS011;61495;53.400;7.608;2022-07-04T00:41:22;3.38;;;1.63;;
73266;SDS011;61495;53.400;7.608;2022-07-04T00:44:04;5.60;;;1.67;;
73266;SDS011;61495;53.400;7.608;2022-07-04T00:46:34;5.00;;;1.60;;
73266;SDS011;61495;53.400;7.608;2022-07-04T00:49:00;5.07;;;2.38;;
73266;SDS011;61495;53.400;7.608;2022-07-04T00:51:27;3.40;;;1.45;;
73266;SDS011;61495;53.400;7.608;2022-07-04T00:53:53;5.53;;;1.80;;
73266;SDS011;61495;53.400;7.608;2022-07-04T00:56:19;5.65;;;1.85;;
73266;SDS011;61495;53.400;7.608;2022-07-04T00:58:45;3.90;;;1.80;;
73266;SDS011;61495;53.400;7.608;2022-07-04T01:01:11;4.70;;;1.60;;
73266;SDS011;61495;53.400;7.608;2022-07-04T01:03:36;3.92;;;1.85;;
73266;SDS011;61495;53.400;7.608;2022-07-04T01:06:02;3.38;;;1.85;;
73266;SDS011;61495;53.400;7.608;2022-07-04T01:08:27;6.68;;;2.03;;
73266;SDS011;61495;53.400;7.608;2022-07-04T01:10:53;4.88;;;2.15;;
73266;SDS011;61495;53.400;7.608;2022-07-04T01:13:22;5.32;;;1.80;;
73266;SDS011;61495;53.400;7.608;2022-07-04T01:15:49;4.75;;;1.98;;
73266;SDS011;61495;53.400;7.608;2022-07-04T01:18:16;5.05;;;1.95;;
73266;SDS011;61495;53.400;7.608;2022-07-04T01:20:42;5.43;;;1.92;;
73266;SDS011;61495;53.400;7.608;2022-07-04T01:23:08;3.33;;;1.83;;
73266;SDS011;61495;53.400;7.608;2022-07-04T01:25:34;3.53;;;1.60;;
73266;SDS011;61495;53.400;7.608;2022-07-04T01:27:59;5.45;;;1.70;;
73266;SDS011;61495;53.400;7.608;2022-07-04T01:30:25;4.47;;;1.83;;
73266;SDS011;61495;53.400;7.608;2022-07-04T01:32:52;10.90;;;2.45;;
73266;SDS011;61495;53.400;7.608;2022-07-04T01:35:18;5.30;;;1.60;;
73266;SDS011;61495;53.400;7.608;2022-07-04T01:37:43;4.13;;;1.70;;
73266;SDS011;61495;53.400;7.608;2022-07-04T01:40:09;4.07;;;1.92;;
73266;SDS011;61495;53.400;7.608;2022-07-04T01:42:36;4.60;;;1.75;;
73266;SDS011;61495;53.400;7.608;2022-07-04T01:45:02;3.72;;;1.63;;
73266;SDS011;61495;53.400;7.608;2022-07-04T01:47:27;3.78;;;1.50;;
73266;SDS011;61495;53.400;7.608;2022-07-04T01:49:53;4.20;;;1.90;;
73266;SDS011;61495;53.400;7.608;2022-07-04T01:52:18;4.70;;;1.70;;
73266;SDS011;61495;53.400;7.608;2022-07-04T01:54:44;3.65;;;1.63;;
73266;SDS011;61495;53.400;7.608;2022-07-04T01:57:09;4.32;;;1.98;;
73266;SDS011;61495;53.400;7.608;2022-07-04T01:59:34;4.68;;;2.10;;
73266;SDS011;61495;53.400;7.608;2022-07-04T02:02:18;5.47;;;1.85;;
73266;SDS011;61495;53.400;7.608;2022-07-04T02:04:44;9.68;;;2.30;;
73266;SDS011;61495;53.400;7.608;2022-07-04T02:07:09;4.22;;;1.88;;
73266;SDS011;61495;53.400;7.608;2022-07-04T02:09:34;4.43;;;2.25;;
73266;SDS011;61495;53.400;7.608;2022-07-04T02:12:00;4.60;;;2.05;;
73266;SDS011;61495;53.400;7.608;2022-07-04T02:14:44;4.75;;;1.92;;
73266;SDS011;61495;53.400;7.608;2022-07-04T02:17:09;4.55;;;1.90;;
73266;SDS011;61495;53.400;7.608;2022-07-04T02:19:35;4.32;;;1.90;;
73266;SDS011;61495;53.400;7.608;2022-07-04T02:22:01;4.78;;;2.00;;
73266;SDS011;61495;53.400;7.608;2022-07-04T02:24:27;6.03;;;1.90;;
73266;SDS011;61495;53.400;7.608;2022-07-04T02:26:53;4.32;;;2.30;;
73266;SDS011;61495;53.400;7.608;2022-07-04T02:29:19;5.05;;;2.05;;
73266;SDS011;61495;53.400;7.608;2022-07-04T02:31:44;3.45;;;1.73;;
73266;SDS011;61495;53.400;7.608;2022-07-04T02:34:10;4.70;;;1.50;;
73266;SDS011;61495;53.400;7.608;2022-07-04T02:36:35;3.88;;;1.63;;
73266;SDS011;61495;53.400;7.608;2022-07-04T02:39:01;5.45;;;2.05;;
73266;SDS011;61495;53.400;7.608;2022-07-04T02:41:26;3.72;;;1.83;;
73266;SDS011;61495;53.400;7.608;2022-07-04T02:43:52;6.45;;;2.30;;
73266;SDS011;61495;53.400;7.608;2022-07-04T02:46:17;4.68;;;2.13;;
73266;SDS011;61495;53.400;7.608;2022-07-04T02:48:43;4.63;;;1.92;;
73266;SDS011;61495;53.400;7.608;2022-07-04T02:51:08;5.25;;;2.20;;
73266;SDS011;61495;53.400;7.608;2022-07-04T02:53:33;5.25;;;2.65;;
73266;SDS011;61495;53.400;7.608;2022-07-04T02:55:59;4.20;;;2.03;;
73266;SDS011;61495;53.400;7.608;2022-07-04T02:58:28;4.15;;;1.63;;
73266;SDS011;61495;53.400;7.608;2022-07-04T03:00:54;4.15;;;1.75;;
73266;SDS011;61495;53.400;7.608;2022-07-04T03:03:19;5.50;;;1.77;;
73266;SDS011;61495;53.400;7.608;2022-07-04T03:05:45;4.95;;;2.05;;
73266;SDS011;61495;53.400;7.608;2022-07-04T03:08:10;5.43;;;1.60;;
73266;SDS011;61495;53.400;7.608;2022-07-04T03:10:35;4.40;;;1.52;;
73266;SDS011;61495;53.400;7.608;2022-07-04T03:13:01;4.85;;;1.85;;
73266;SDS011;61495;53.400;7.608;2022-07-04T03:15:26;4.57;;;2.08;;
73266;SDS011;61495;53.400;7.608;2022-07-04T03:17:51;6.65;;;2.10;;
73266;SDS011;61495;53.400;7.608;2022-07-04T03:20:17;5.70;;;2.30;;
73266;SDS011;61495;53.400;7.608;2022-07-04T03:22:42;5.57;;;2.42;;
73266;SDS011;61495;53.400;7.608;2022-07-04T03:25:07;5.20;;;2.42;;
73266;SDS011;61495;53.400;7.608;2022-07-04T03:27:33;3.97;;;1.95;;
73266;SDS011;61495;53.400;7.608;2022-07-04T03:29:58;3.75;;;1.88;;
73266;SDS011;61495;53.400;7.608;2022-07-04T03:32:24;6.03;;;2.10;;
73266;SDS011;61495;53.400;7.608;2022-07-04T03:34:49;4.90;;;1.98;;
73266;SDS011;61495;53.400;7.608;2022-07-04T03:37:14;4.22;;;2.10;;
73266;SDS011;61495;53.400;7.608;2022-07-04T03:39:40;13.02;;;2.97;;
73266;SDS011;61495;53.400;7.608;2022-07-04T03:42:05;5.90;;;2.28;;
73266;SDS011;61495;53.400;7.608;2022-07-04T03:44:31;7.82;;;2.42;;
73266;SDS011;61495;53.400;7.608;2022-07-04T03:46:56;6.47;;;2.40;;
73266;SDS011;61495;53.400;7.608;2022-07-04T03:49:21;5.20;;;2.92;;
73266;SDS011;61495;53.400;7.608;2022-07-04T03:51:47;4.75;;;2.75;;
73266;SDS011;61495;53.400;7.608;2022-07-04T03:54:12;4.75;;;2.58;;
73266;SDS011;61495;53.400;7.608;2022-07-04T03:56:37;6.40;;;2.75;;
73266;SDS011;61495;53.400;7.608;2022-07-04T03:59:03;5.75;;;2.55;;
73266;SDS011;61495;53.400;7.608;2022-07-04T04:01:28;5.32;;;2.25;;
73266;SDS011;61495;53.400;7.608;2022-07-04T04:03:54;6.07;;;2.42;;
73266;SDS011;61495;53.400;7.608;2022-07-04T04:06:38;5.05;;;2.63;;
73266;SDS011;61495;53.400;7.608;2022-07-04T04:09:04;7.40;;;2.72;;
73266;SDS011;61495;53.400;7.608;2022-07-04T04:11:29;8.20;;;2.72;;
73266;SDS011;61495;53.400;7.608;2022-07-04T04:13:56;7.90;;;2.35;;
73266;SDS011;61495;53.400;7.608;2022-07-04T04:16:22;5.20;;;2.65;;
73266;SDS011;61495;53.400;7.608;2022-07-04T04:18:48;6.47;;;2.72;;
73266;SDS011;61495;53.400;7.608;2022-07-04T04:21:13;6.78;;;2.83;;
73266;SDS011;61495;53.400;7.608;2022-07-04T04:23:39;5.63;;;2.45;;
73266;SDS011;61495;53.400;7.608;2022-07-04T04:26:04;5.30;;;2.60;;
73266;SDS011;61495;53.400;7.608;2022-07-04T04:28:29;5.38;;;2.65;;
73266;SDS011;61495;53.400;7.608;2022-07-04T04:30:55;6.78;;;2.65;;
73266;SDS011;61495;53.400;7.608;2022-07-04T04:33:20;5.82;;;2.80;;
73266;SDS011;61495;53.400;7.608;2022-07-04T04:35:45;7.57;;;2.95;;
73266;SDS011;61495;53.400;7.608;2022-07-04T04:38:11;5.55;;;2.78;;
73266;SDS011;61495;53.400;7.608;2022-07-04T04:40:36;8.23;;;3.15;;
73266;SDS011;61495;53.400;7.608;2022-07-04T04:43:01;8.02;;;3.40;;
73266;SDS011;61495;53.400;7.608;2022-07-04T04:45:27;7.53;;;3.60;;
73266;SDS011;61495;53.400;7.608;2022-07-04T04:47:52;6.65;;;3.20;;
73266;SDS011;61495;53.400;7.608;2022-07-04T04:50:19;6.85;;;3.00;;
73266;SDS011;61495;53.400;7.608;2022-07-04T04:52:45;6.55;;;2.88;;
73266;SDS011;61495;53.400;7.608;2022-07-04T04:55:11;7.05;;;3.25;;
73266;SDS011;61495;53.400;7.608;2022-07-04T04:57:36;5.32;;;2.85;;
73266;SDS011;61495;53.400;7.608;2022-07-04T05:00:02;6.50;;;3.15;;
73266;SDS011;61495;53.400;7.608;2022-07-04T05:02:29;11.57;;;3.35;;
73266;SDS011;61495;53.400;7.608;2022-07-04T05:04:55;10.45;;;3.72;;
73266;SDS011;61495;53.400;7.608;2022-07-04T05:07:20;7.53;;;3.60;;
73266;SDS011;61495;53.400;7.608;2022-07-04T05:09:46;7.95;;;3.40;;
73266;SDS011;61495;53.400;7.608;2022-07-04T05:12:11;6.80;;;3.03;;
73266;SDS011;61495;53.400;7.608;2022-07-04T05:14:38;5.80;;;3.05;;
73266;SDS011;61495;53.400;7.608;2022-07-04T05:17:03;8.43;;;3.65;;
73266;SDS011;61495;53.400;7.608;2022-07-04T05:19:29;8.55;;;3.80;;
73266;SDS011;61495;53.400;7.608;2022-07-04T05:21:54;6.53;;;3.80;;
73266;SDS011;61495;53.400;7.608;2022-07-04T05:24:20;8.63;;;3.05;;
73266;SDS011;61495;53.400;7.608;2022-07-04T05:26:45;6.28;;;2.97;;
73266;SDS011;61495;53.400;7.608;2022-07-04T05:29:11;6.28;;;3.38;;
73266;SDS011;61495;53.400;7.608;2022-07-04T05:31:36;6.57;;;3.08;;
73266;SDS011;61495;53.400;7.608;2022-07-04T05:34:01;7.75;;;3.42;;
73266;SDS011;61495;53.400;7.608;2022-07-04T05:36:27;6.88;;;3.40;;
73266;SDS011;61495;53.400;7.608;2022-07-04T05:38:53;5.78;;;2.95;;
73266;SDS011;61495;53.400;7.608;2022-07-04T05:41:18;6.22;;;2.90;;
73266;SDS011;61495;53.400;7.608;2022-07-04T05:43:44;5.70;;;2.75;;
73266;SDS011;61495;53.400;7.608;2022-07-04T05:46:09;7.22;;;3.03;;
73266;SDS011;61495;53.400;7.608;2022-07-04T05:48:35;7.22;;;3.20;;
73266;SDS011;61495;53.400;7.608;2022-07-04T05:51:01;7.40;;;3.47;;
73266;SDS011;61495;53.400;7.608;2022-07-04T05:53:28;7.30;;;3.28;;
73266;SDS011;61495;53.400;7.608;2022-07-04T05:55:54;7.00;;;2.70;;
73266;SDS011;61495;53.400;7.608;2022-07-04T05:58:19;6.47;;;2.70;;
73266;SDS011;61495;53.400;7.608;2022-07-04T06:00:44;5.38;;;2.72;;
73266;SDS011;61495;53.400;7.608;2022-07-04T06:03:10;5.97;;;2.47;;
73266;SDS011;61495;53.400;7.608;2022-07-04T06:05:39;5.78;;;2.50;;
73266;SDS011;61495;53.400;7.608;2022-07-04T06:08:04;7.97;;;2.90;;
73266;SDS011;61495;53.400;7.608;2022-07-04T06:10:30;6.00;;;2.65;;
73266;SDS011;61495;53.400;7.608;2022-07-04T06:12:55;4.95;;;2.38;;
73266;SDS011;61495;53.400;7.608;2022-07-04T06:15:21;5.45;;;2.83;;
73266;SDS011;61495;53.400;7.608;2022-07-04T06:17:46;9.02;;;3.10;;
73266;SDS011;61495;53.400;7.608;2022-07-04T06:20:12;6.22;;;2.42;;
73266;SDS011;61495;53.400;7.608;2022-07-04T06:22:41;5.78;;;2.45;;
73266;SDS011;61495;53.400;7.608;2022-07-04T06:25:10;4.85;;;2.15;;
73266;SDS011;61495;53.400;7.608;2022-07-04T06:27:39;5.65;;;2.58;;
73266;SDS011;61495;53.400;7.608;2022-07-04T06:30:05;5.07;;;2.38;;
73266;SDS011;61495;53.400;7.608;2022-07-04T06:32:40;5.13;;;2.08;;
73266;SDS011;61495;53.400;7.608;2022-07-04T06:35:09;5.00;;;2.20;;
73266;SDS011;61495;53.400;7.608;2022-07-04T06:37:53;7.03;;;2.35;;
73266;SDS011;61495;53.400;7.608;2022-07-04T06:40:19;7.45;;;1.60;;
73266;SDS011;61495;53.400;7.608;2022-07-04T06:42:44;4.50;;;2.00;;
73266;SDS011;61495;53.400;7.608;2022-07-04T06:45:09;4.47;;;1.60;;
73266;SDS011;61495;53.400;7.608;2022-07-04T06:47:35;4.60;;;1.90;;
73266;SDS011;61495;53.400;7.608;2022-07-04T06:50:01;6.43;;;1.92;;
73266;SDS011;61495;53.400;7.608;2022-07-04T06:52:26;6.63;;;2.50;;
73266;SDS011;61495;53.400;7.608;2022-07-04T06:54:51;4.75;;;1.65;;
73266;SDS011;61495;53.400;7.608;2022-07-04T06:57:17;4.95;;;2.33;;
73266;SDS011;61495;53.400;7.608;2022-07-04T06:59:42;6.10;;;2.00;;
73266;SDS011;61495;53.400;7.608;2022-07-04T07:02:08;4.72;;;1.80;;
73266;SDS011;61495;53.400;7.608;2022-07-04T07:04:33;5.32;;;1.98;;
73266;SDS011;61495;53.400;7.608;2022-07-04T07:06:59;4.70;;;1.67;;
73266;SDS011;61495;53.400;7.608;2022-07-04T07:09:25;4.18;;;1.77;;
73266;SDS011;61495;53.400;7.608;2022-07-04T07:11:50;4.68;;;1.83;;
73266;SDS011;61495;53.400;7.608;2022-07-04T07:14:16;6.10;;;2.33;;
73266;SDS011;61495;53.400;7.608;2022-07-04T07:16:41;5.63;;;1.80;;
73266;SDS011;61495;53.400;7.608;2022-07-04T07:19:07;6.30;;;1.92;;
73266;SDS011;61495;53.400;7.608;2022-07-04T07:21:32;5.07;;;2.15;;
73266;SDS011;61495;53.400;7.608;2022-07-04T07:23:57;5.30;;;2.00;;
73266;SDS011;61495;53.400;7.608;2022-07-04T07:26:25;4.90;;;1.73;;
73266;SDS011;61495;53.400;7.608;2022-07-04T07:28:50;5.35;;;1.98;;
73266;SDS011;61495;53.400;7.608;2022-07-04T07:31:16;5.10;;;1.80;;
73266;SDS011;61495;53.400;7.608;2022-07-04T07:33:41;6.03;;;2.00;;
73266;SDS011;61495;53.400;7.608;2022-07-04T07:36:07;8.40;;;2.15;;
73266;SDS011;61495;53.400;7.608;2022-07-04T07:38:33;5.18;;;1.67;;
73266;SDS011;61495;53.400;7.608;2022-07-04T07:40:58;6.07;;;1.80;;
73266;SDS011;61495;53.400;7.608;2022-07-04T07:43:23;7.60;;;1.95;;
73266;SDS011;61495;53.400;7.608;2022-07-04T07:45:49;5.38;;;1.85;;
73266;SDS011;61495;53.400;7.608;2022-07-04T07:48:14;4.18;;;2.15;;
73266;SDS011;61495;53.400;7.608;2022-07-04T07:50:40;6.55;;;2.05;;
73266;SDS011;61495;53.400;7.608;2022-07-04T07:53:05;5.47;;;1.90;;
73266;SDS011;61495;53.400;7.608;2022-07-04T07:55:30;6.03;;;1.92;;
73266;SDS011;61495;53.400;7.608;2022-07-04T07:57:56;7.80;;;2.22;;
73266;SDS011;61495;53.400;7.608;2022-07-04T08:00:23;3.97;;;1.75;;
73266;SDS011;61495;53.400;7.608;2022-07-04T08:02:49;5.88;;;1.80;;
73266;SDS011;61495;53.400;7.608;2022-07-04T08:05:40;5.28;;;2.00;;
73266;SDS011;61495;53.400;7.608;2022-07-04T08:08:06;5.43;;;2.22;;
73266;SDS011;61495;53.400;7.608;2022-07-04T08:10:32;4.07;;;1.50;;
73266;SDS011;61495;53.400;7.608;2022-07-04T08:12:58;5.63;;;2.00;;
73266;SDS011;61495;53.400;7.608;2022-07-04T08:15:24;5.90;;;1.60;;
73266;SDS011;61495;53.400;7.608;2022-07-04T08:17:50;4.40;;;1.60;;
73266;SDS011;61495;53.400;7.608;2022-07-04T08:20:15;3.35;;;1.30;;
73266;SDS011;61495;53.400;7.608;2022-07-04T08:22:41;4.28;;;1.48;;
73266;SDS011;61495;53.400;7.608;2022-07-04T08:25:06;5.18;;;1.60;;
73266;SDS011;61495;53.400;7.608;2022-07-04T08:27:32;6.68;;;2.15;;
73266;SDS011;61495;53.400;7.608;2022-07-04T08:29:58;6.10;;;1.60;;
73266;SDS011;61495;53.400;7.608;2022-07-04T08:32:23;4.38;;;1.88;;
73266;SDS011;61495;53.400;7.608;2022-07-04T08:34:49;4.50;;;1.50;;
73266;SDS011;61495;53.400;7.608;2022-07-04T08:37:14;7.00;;;1.67;;
73266;SDS011;61495;53.400;7.608;2022-07-04T08:39:40;5.07;;;1.77;;
73266;SDS011;61495;53.400;7.608;2022-07-04T08:42:06;5.38;;;1.70;;
73266;SDS011;61495;53.400;7.608;2022-07-04T08:44:39;4.90;;;1.70;;
73266;SDS011;61495;53.400;7.608;2022-07-04T08:47:09;3.83;;;1.30;;
73266;SDS011;61495;53.400;7.608;2022-07-04T08:49:35;4.95;;;1.50;;
73266;SDS011;61495;53.400;7.608;2022-07-04T08:52:06;4.40;;;1.67;;
73266;SDS011;61495;53.400;7.608;2022-07-04T08:54:35;5.13;;;1.65;;
73266;SDS011;61495;53.400;7.608;2022-07-04T08:57:20;6.28;;;1.30;;
73266;SDS011;61495;53.400;7.608;2022-07-04T09:00:05;5.90;;;1.85;;
73266;SDS011;61495;53.400;7.608;2022-07-04T09:02:31;3.45;;;1.10;;
73266;SDS011;61495;53.400;7.608;2022-07-04T09:04:59;4.50;;;1.20;;
73266;SDS011;61495;53.400;7.608;2022-07-04T09:07:26;4.38;;;1.65;;
73266;SDS011;61495;53.400;7.608;2022-07-04T09:09:53;5.30;;;1.33;;
73266;SDS011;61495;53.400;7.608;2022-07-04T09:12:19;4.80;;;1.58;;
73266;SDS011;61495;53.400;7.608;2022-07-04T09:14:44;3.80;;;1.17;;
73266;SDS011;61495;53.400;7.608;2022-07-04T09:17:10;3.20;;;1.38;;
73266;SDS011;61495;53.400;7.608;2022-07-04T09:19:35;4.82;;;1.20;;
73266;SDS011;61495;53.400;7.608;2022-07-04T09:22:05;5.13;;;1.20;;
73266;SDS011;61495;53.400;7.608;2022-07-04T09:24:49;5.40;;;0.95;;
73266;SDS011;61495;53.400;7.608;2022-07-04T09:27:28;4.25;;;1.10;;
73266;SDS011;61495;53.400;7.608;2022-07-04T09:29:58;4.85;;;1.10;;
73266;SDS011;61495;53.400;7.608;2022-07-04T09:33:09;4.50;;;1.20;;
73266;SDS011;61495;53.400;7.608;2022-07-04T09:35:12;6.50;;;1.40;;
73266;SDS011;61495;53.400;7.608;2022-07-04T09:37:42;2.67;;;0.88;;
73266;SDS011;61495;53.400;7.608;2022-07-04T09:40:25;4.03;;;1.17;;
73266;SDS011;61495;53.400;7.608;2022-07-04T09:42:54;5.15;;;1.40;;
73266;SDS011;61495;53.400;7.608;2022-07-04T09:45:21;6.15;;;1.20;;
73266;SDS011;61495;53.400;7.608;2022-07-04T09:47:49;3.63;;;1.13;;
73266;SDS011;61495;53.400;7.608;2022-07-04T09:50:16;6.15;;;1.30;;
73266;SDS011;61495;53.400;7.608;2022-07-04T09:52:57;4.47;;;1.23;;
73266;SDS011;61495;53.400;7.608;2022-07-04T09:57:58;5.80;;;1.40;;
73266;SDS011;61495;53.400;7.608;2022-07-04T10:00:29;4.10;;;1.10;;
73266;SDS011;61495;53.400;7.608;2022-07-04T10:02:56;4.10;;;1.35;;
73266;SDS011;61495;53.400;7.608;2022-07-04T10:05:40;5.65;;;1.40;;
73266;SDS011;61495;53.400;7.608;2022-07-04T10:08:05;4.57;;;1.60;;
73266;SDS011;61495;53.400;7.608;2022-07-04T10:10:35;6.07;;;1.60;;
73266;SDS011;61495;53.400;7.608;2022-07-04T10:13:05;5.35;;;1.50;;
73266;SDS011;61495;53.400;7.608;2022-07-04T10:15:33;4.00;;;1.27;;
73266;SDS011;61495;53.400;7.608;2022-07-04T10:18:00;4.40;;;1.30;;
73266;SDS011;61495;53.400;7.608;2022-07-04T10:20:25;4.20;;;1.35;;
73266;SDS011;61495;53.400;7.608;2022-07-04T10:22:51;4.25;;;1.23;;
73266;SDS011;61495;53.400;7.608;2022-07-04T10:25:17;4.72;;;1.33;;
73266;SDS011;61495;53.400;7.608;2022-07-04T10:27:43;4.60;;;1.40;;
73266;SDS011;61495;53.400;7.608;2022-07-04T10:30:11;5.53;;;1.40;;
73266;SDS011;61495;53.400;7.608;2022-07-04T10:32:39;2.88;;;1.30;;
73266;SDS011;61495;53.400;7.608;2022-07-04T10:35:08;4.95;;;1.38;;
73266;SDS011;61495;53.400;7.608;2022-07-04T10:40:39;4.45;;;1.40;;
73266;SDS011;61495;53.400;7.608;2022-07-04T10:46:22;4.47;;;1.30;;
73266;SDS011;61495;53.400;7.608;2022-07-04T10:49:00;5.22;;;1.48;;
73266;SDS011;61495;53.400;7.608;2022-07-04T10:59:13;4.07;;;1.40;;
73266;SDS011;61495;53.400;7.608;2022-07-04T11:01:47;4.40;;;2.05;;
73266;SDS011;61495;53.400;7.608;2022-07-04T11:04:47;6.60;;;1.30;;
73266;SDS011;61495;53.400;7.608;2022-07-04T11:07:22;3.88;;;1.92;;
73266;SDS011;61495;53.400;7.608;2022-07-04T11:17:54;4.68;;;1.42;;
73266;SDS011;61495;53.400;7.608;2022-07-04T11:20:22;3.67;;;1.30;;
73266;SDS011;61495;53.400;7.608;2022-07-04T11:22:48;2.85;;;1.02;;
73266;SDS011;61495;53.400;7.608;2022-07-04T11:25:14;3.17;;;1.20;;
73266;SDS011;61495;53.400;7.608;2022-07-04T11:27:40;3.15;;;1.20;;
73266;SDS011;61495;53.400;7.608;2022-07-04T11:30:07;4.80;;;1.20;;
73266;SDS011;61495;53.400;7.608;2022-07-04T11:32:34;2.80;;;1.15;;
73266;SDS011;61495;53.400;7.608;2022-07-04T11:35:01;2.85;;;1.00;;
73266;SDS011;61495;53.400;7.608;2022-07-04T11:37:29;3.15;;;1.10;;
73266;SDS011;61495;53.400;7.608;2022-07-04T11:39:54;2.63;;;0.90;;
73266;SDS011;61495;53.400;7.608;2022-07-04T11:42:39;4.18;;;1.02;;
73266;SDS011;61495;53.400;7.608;2022-07-04T11:45:24;2.47;;;1.05;;
73266;SDS011;61495;53.400;7.608;2022-07-04T11:47:49;3.90;;;0.80;;
73266;SDS011;61495;53.400;7.608;2022-07-04T11:50:16;4.78;;;1.30;;
73266;SDS011;61495;53.400;7.608;2022-07-04T11:52:45;3.75;;;1.02;;
73266;SDS011;61495;53.400;7.608;2022-07-04T11:55:13;2.15;;;0.77;;
73266;SDS011;61495;53.400;7.608;2022-07-04T12:00:18;3.80;;;1.20;;
73266;SDS011;61495;53.400;7.608;2022-07-04T12:02:46;2.47;;;1.00;;
73266;SDS011;61495;53.400;7.608;2022-07-04T12:05:14;3.30;;;1.10;;
73266;SDS011;61495;53.400;7.608;2022-07-04T12:07:41;2.30;;;0.98;;
73266;SDS011;61495;53.400;7.608;2022-07-04T12:10:15;2.60;;;1.00;;
73266;SDS011;61495;53.400;7.608;2022-07-04T12:15:17;4.60;;;0.80;;
73266;SDS011;61495;53.400;7.608;2022-07-04T12:17:43;2.70;;;0.90;;
73266;SDS011;61495;53.400;7.608;2022-07-04T12:20:15;3.08;;;1.20;;
73266;SDS011;61495;53.400;7.608;2022-07-04T12:22:51;2.55;;;0.93;;
73266;SDS011;61495;53.400;7.608;2022-07-04T12:27:57;2.65;;;0.88;;
73266;SDS011;61495;53.400;7.608;2022-07-04T12:30:23;3.38;;;0.93;;
73266;SDS011;61495;53.400;7.608;2022-07-04T12:32:51;2.92;;;1.05;;
73266;SDS011;61495;53.400;7.608;2022-07-04T12:38:12;3.28;;;1.00;;
73266;SDS011;61495;53.400;7.608;2022-07-04T12:40:52;3.22;;;1.13;;
73266;SDS011;61495;53.400;7.608;2022-07-04T12:43:19;4.03;;;1.00;;
73266;SDS011;61495;53.400;7.608;2022-07-04T12:45:46;3.25;;;1.00;;
73266;SDS011;61495;53.400;7.608;2022-07-04T12:48:16;3.75;;;1.25;;
73266;SDS011;61495;53.400;7.608;2022-07-04T12:50:43;5.72;;;1.30;;
73266;SDS011;61495;53.400;7.608;2022-07-04T12:53:08;4.03;;;1.20;;
73266;SDS011;61495;53.400;7.608;2022-07-04T12:55:36;3.58;;;1.05;;
73266;SDS011;61495;53.400;7.608;2022-07-04T12:58:03;3.13;;;1.15;;
73266;SDS011;61495;53.400;7.608;2022-07-04T13:00:28;3.85;;;1.13;;
73266;SDS011;61495;53.400;7.608;2022-07-04T13:02:54;3.85;;;1.20;;
73266;SDS011;61495;53.400;7.608;2022-07-04T13:05:19;8.00;;;1.67;;
73266;SDS011;61495;53.400;7.608;2022-07-04T13:07:45;4.07;;;1.17;;
73266;SDS011;61495;53.400;7.608;2022-07-04T13:10:11;3.83;;;1.15;;
73266;SDS011;61495;53.400;7.608;2022-07-04T13:12:36;4.13;;;1.10;;
73266;SDS011;61495;53.400;7.608;2022-07-04T13:15:02;5.10;;;0.90;;
73266;SDS011;61495;53.400;7.608;2022-07-04T13:17:29;4.47;;;1.30;;
73266;SDS011;61495;53.400;7.608;2022-07-04T13:19:55;3.78;;;1.20;;
73266;SDS011;61495;53.400;7.608;2022-07-04T13:22:21;4.55;;;1.00;;
73266;SDS011;61495;53.400;7.608;2022-07-04T13:24:48;5.32;;;1.02;;
73266;SDS011;61495;53.400;7.608;2022-07-04T13:27:15;4.80;;;1.20;;
73266;SDS011;61495;53.400;7.608;2022-07-04T13:29:41;4.35;;;1.15;;
73266;SDS011;61495;53.400;7.608;2022-07-04T13:32:07;4.25;;;1.30;;
73266;SDS011;61495;53.400;7.608;2022-07-04T13:34:32;4.53;;;1.10;;
73266;SDS011;61495;53.400;7.608;2022-07-04T13:36:58;3.97;;;1.08;;
73266;SDS011;61495;53.400;7.608;2022-07-04T13:39:23;3.30;;;1.00;;
73266;SDS011;61495;53.400;7.608;2022-07-04T13:41:49;4.43;;;1.13;;
73266;SDS011;61495;53.400;7.608;2022-07-04T13:44:14;3.88;;;1.13;;
73266;SDS011;61495;53.400;7.608;2022-07-04T13:46:41;3.72;;;0.90;;
73266;SDS011;61495;53.400;7.608;2022-07-04T13:49:07;3.15;;;1.20;;
73266;SDS011;61495;53.400;7.608;2022-07-04T13:51:33;3.10;;;1.05;;
73266;SDS011;61495;53.400;7.608;2022-07-04T13:53:59;2.65;;;0.90;;
73266;SDS011;61495;53.400;7.608;2022-07-04T13:56:25;4.72;;;1.02;;
73266;SDS011;61495;53.400;7.608;2022-07-04T13:58:51;3.17;;;1.00;;
73266;SDS011;61495;53.400;7.608;2022-07-04T14:01:17;3.72;;;1.10;;
73266;SDS011;61495;53.400;7.608;2022-07-04T14:03:44;2.78;;;0.90;;
73266;SDS011;61495;53.400;7.608;2022-07-04T14:06:10;3.63;;;0.90;;
73266;SDS011;61495;53.400;7.608;2022-07-04T14:08:36;3.17;;;0.80;;
73266;SDS011;61495;53.400;7.608;2022-07-04T14:11:01;2.97;;;0.93;;
73266;SDS011;61495;53.400;7.608;2022-07-04T14:13:28;4.47;;;1.13;;
73266;SDS011;61495;53.400;7.608;2022-07-04T14:15:53;2.22;;;0.82;;
73266;SDS011;61495;53.400;7.608;2022-07-04T14:18:20;2.95;;;0.90;;
73266;SDS011;61495;53.400;7.608;2022-07-04T14:20:45;2.50;;;0.85;;
73266;SDS011;61495;53.400;7.608;2022-07-04T14:23:12;2.40;;;0.82;;
73266;SDS011;61495;53.400;7.608;2022-07-04T14:25:37;4.38;;;0.98;;
73266;SDS011;61495;53.400;7.608;2022-07-04T14:28:03;5.25;;;1.00;;
73266;SDS011;61495;53.400;7.608;2022-07-04T14:30:29;4.80;;;1.10;;
73266;SDS011;61495;53.400;7.608;2022-07-04T14:32:55;3.13;;;0.93;;
73266;SDS011;61495;53.400;7.608;2022-07-04T14:35:21;6.07;;;0.95;;
73266;SDS011;61495;53.400;7.608;2022-07-04T14:37:47;4.38;;;1.20;;
73266;SDS011;61495;53.400;7.608;2022-07-04T14:40:14;3.10;;;1.10;;
73266;SDS011;61495;53.400;7.608;2022-07-04T14:42:40;3.40;;;0.90;;
73266;SDS011;61495;53.400;7.608;2022-07-04T14:45:06;3.58;;;0.95;;
73266;SDS011;61495;53.400;7.608;2022-07-04T14:47:32;5.90;;;1.20;;
73266;SDS011;61495;53.400;7.608;2022-07-04T14:50:00;4.38;;;0.90;;
73266;SDS011;61495;53.400;7.608;2022-07-04T14:52:26;3.00;;;0.80;;
73266;SDS011;61495;53.400;7.608;2022-07-04T14:54:53;5.00;;;0.93;;
73266;SDS011;61495;53.400;7.608;2022-07-04T14:57:18;4.43;;;0.90;;
73266;SDS011;61495;53.400;7.608;2022-07-04T14:59:44;3.47;;;1.00;;
73266;SDS011;61495;53.400;7.608;2022-07-04T15:02:09;2.95;;;0.82;;
73266;SDS011;61495;53.400;7.608;2022-07-04T15:04:35;3.95;;;1.08;;
73266;SDS011;61495;53.400;7.608;2022-07-04T15:07:00;4.95;;;1.10;;
73266;SDS011;61495;53.400;7.608;2022-07-04T15:09:27;5.88;;;0.85;;
73266;SDS011;61495;53.400;7.608;2022-07-04T15:11:52;5.28;;;1.50;;
73266;SDS011;61495;53.400;7.608;2022-07-04T15:14:18;2.25;;;0.75;;
73266;SDS011;61495;53.400;7.608;2022-07-04T15:16:43;3.42;;;0.90;;
73266;SDS011;61495;53.400;7.608;2022-07-04T15:19:09;3.83;;;0.85;;
73266;SDS011;61495;53.400;7.608;2022-07-04T15:21:35;3.33;;;0.98;;